Time;durP1;ratioP1;P1;durP2;ratioP2;P2;SDS_P1;SDS_P2;PMS_P1;PMS_P2;Temp;Humidity;BMP_temperature;BMP_pressure;BME280_temperature;BME280_humidity;BME280_pressure;Samples;Min_cycle;Max_cycle;Signal;HPM_P1;HPM_P2
2022/09/07 00:00:40;;;;;;;9.82;1.48;;;17.70;87.60;;;;;;2099655;28;20315;-89
2022/09/07 00:01:41;;;;;;;12.00;1.80;;;17.70;87.50;;;;;;2090987;28;20035;-91
2022/09/07 00:02:42;;;;;;;6.50;1.50;;;17.70;87.90;;;;;;2082252;28;20048;-93
2022/09/07 00:03:42;;;;;;;8.73;1.55;;;17.70;87.10;;;;;;2086178;28;20507;-93
2022/09/07 00:04:43;;;;;;;12.73;1.43;;;17.70;86.80;;;;;;2085792;28;20096;-87
2022/09/07 00:05:46;;;;;;;9.57;1.50;;;17.70;86.60;;;;;;2092018;28;20029;-88
2022/09/07 00:06:46;;;;;;;11.48;2.10;;;17.70;87.00;;;;;;2084144;28;20041;-93
2022/09/07 00:07:47;;;;;;;9.45;2.35;;;17.70;86.70;;;;;;2083465;28;20263;-87
2022/09/07 00:08:48;;;;;;;9.10;1.50;;;17.70;87.10;;;;;;2083745;28;20059;-92
2022/09/07 00:09:50;;;;;;;7.60;1.83;;;17.70;87.10;;;;;;2082789;28;20029;-89
2022/09/07 00:10:58;;;;;;;;;;;17.70;87.50;;;;;;2098248;28;20102;-91
2022/09/07 00:11:58;;;;;;;7.00;1.52;;;17.70;87.20;;;;;;2107369;28;20262;-93
2022/09/07 00:12:59;;;;;;;11.43;1.60;;;17.70;87.10;;;;;;2092014;28;20273;-89
2022/09/07 00:14:00;;;;;;;10.00;1.43;;;17.70;87.80;;;;;;2091913;28;20101;-92
2022/09/07 00:15:07;;;;;;;7.15;1.52;;;17.70;86.70;;;;;;2089118;28;20040;-91
2022/09/07 00:16:19;;;;;;;8.88;1.58;;;17.70;87.40;;;;;;2099083;28;20044;-91
2022/09/07 00:17:20;;;;;;;;;;;17.60;87.20;;;;;;2092605;28;20302;-87
2022/09/07 00:18:20;;;;;;;11.23;1.73;;;17.70;87.20;;;;;;2082256;28;19909;-89
2022/09/07 00:19:21;;;;;;;10.53;1.93;;;17.70;87.20;;;;;;2082912;28;20478;-92
2022/09/07 00:20:22;;;;;;;12.80;1.92;;;17.60;87.10;;;;;;2083644;28;20079;-91
2022/09/07 00:21:23;;;;;;;6.17;1.63;;;17.70;87.30;;;;;;2086381;28;20043;-89
2022/09/07 00:22:24;;;;;;;9.23;2.03;;;17.60;86.90;;;;;;2082999;28;20470;-89
2022/09/07 00:23:26;;;;;;;9.03;1.67;;;17.60;87.30;;;;;;2090117;28;20490;-91
2022/09/07 00:24:26;;;;;;;11.30;1.67;;;17.60;86.80;;;;;;2087526;28;20021;-89
2022/09/07 00:25:27;;;;;;;7.40;2.03;;;17.60;87.50;;;;;;2088470;28;20371;-91
2022/09/07 00:26:30;;;;;;;12.27;2.37;;;17.60;87.50;;;;;;2091870;28;20036;-91
2022/09/07 00:27:30;;;;;;;11.60;2.33;;;17.60;87.00;;;;;;2081482;28;20064;-88
2022/09/07 00:28:31;;;;;;;12.63;2.53;;;17.60;87.90;;;;;;2083567;28;20262;-92
2022/09/07 00:29:32;;;;;;;16.67;2.10;;;17.60;87.30;;;;;;2082660;28;20422;-92
2022/09/07 00:30:39;;;;;;;7.70;1.50;;;17.70;87.50;;;;;;2091886;28;20167;-92
2022/09/07 00:31:40;;;;;;;10.93;2.17;;;17.70;87.40;;;;;;2092528;28;20029;-89
2022/09/07 00:32:41;;;;;;;9.13;1.65;;;17.60;87.10;;;;;;2095389;28;20277;-91
2022/09/07 00:33:42;;;;;;;11.30;1.90;;;17.70;87.10;;;;;;2083731;28;20124;-89
2022/09/07 00:34:43;;;;;;;8.63;1.90;;;17.60;87.50;;;;;;2083914;28;20124;-90
2022/09/07 00:35:45;;;;;;;7.43;1.50;;;17.60;88.00;;;;;;2091385;28;20037;-90
2022/09/07 00:36:46;;;;;;;9.55;1.92;;;17.60;87.40;;;;;;2099237;28;20039;-89
2022/09/07 00:37:46;;;;;;;9.10;1.53;;;17.60;87.50;;;;;;2090791;28;20114;-93
2022/09/07 00:38:47;;;;;;;9.57;1.63;;;17.60;87.30;;;;;;2091979;28;20025;-90
2022/09/07 00:39:48;;;;;;;9.43;1.58;;;17.60;87.50;;;;;;2091170;28;20025;-89
2022/09/07 00:40:49;;;;;;;5.97;1.65;;;17.60;87.70;;;;;;2099999;28;20040;-90
2022/09/07 00:41:49;;;;;;;5.87;1.60;;;17.60;88.00;;;;;;2075175;28;20030;-88
2022/09/07 00:42:50;;;;;;;7.80;1.93;;;17.60;88.40;;;;;;2084480;28;20047;-91
2022/09/07 00:43:57;;;;;;;10.63;1.77;;;17.60;87.80;;;;;;2075298;28;20026;-89
2022/09/07 00:45:05;;;;;;;8.43;1.50;;;17.60;87.60;;;;;;2091264;28;20033;-89
2022/09/07 00:46:17;;;;;;;10.15;1.63;;;17.60;87.90;;;;;;2099720;28;20736;-88
2022/09/07 00:47:22;;;;;;;11.18;2.13;;;17.60;87.50;;;;;;2087386;28;20324;-88
2022/09/07 00:48:30;;;;;;;10.45;2.10;;;17.60;87.60;;;;;;2078168;28;20757;-90
2022/09/07 00:49:31;;;;;;;11.25;2.63;;;17.60;88.00;;;;;;2085567;28;20644;-93
2022/09/07 00:50:39;;;;;;;12.57;2.55;;;17.60;88.10;;;;;;2091759;28;20316;-91
2022/09/07 00:51:50;;;;;;;12.32;2.35;;;17.60;87.80;;;;;;2084532;28;20455;-92
2022/09/07 00:52:56;;;;;;;10.07;2.20;;;17.60;88.00;;;;;;2101267;28;20265;-91
2022/09/07 00:54:03;;;;;;;10.30;2.15;;;17.60;87.80;;;;;;2097457;28;20324;-88
2022/09/07 00:55:09;;;;;;;10.50;1.50;;;17.60;88.10;;;;;;2099817;28;20358;-88
2022/09/07 00:56:11;;;;;;;11.27;2.13;;;17.60;87.50;;;;;;2091879;28;20351;-90
2022/09/07 00:57:12;;;;;;;;;;;17.60;88.80;;;;;;2091977;28;20328;-88
2022/09/07 00:58:13;;;;;;;13.07;1.35;;;17.60;88.60;;;;;;2083478;28;19967;-93
2022/09/07 00:59:18;;;;;;;9.25;1.75;;;17.60;88.20;;;;;;2083343;28;20026;-90
2022/09/07 01:00:19;;;;;;;14.18;2.35;;;17.60;88.50;;;;;;2082355;28;20033;-92
2022/09/07 01:01:20;;;;;;;6.88;1.80;;;17.50;88.60;;;;;;2084592;28;20259;-90
2022/09/07 01:02:22;;;;;;;9.20;1.63;;;17.50;88.00;;;;;;2082160;28;20029;-92
2022/09/07 01:03:26;;;;;;;8.80;1.55;;;17.60;88.20;;;;;;2083135;28;20265;-89
2022/09/07 01:04:29;;;;;;;9.90;2.63;;;17.50;88.80;;;;;;2083837;28;20053;-88
2022/09/07 01:05:47;;;;;;;9.70;1.83;;;17.50;88.30;;;;;;2090959;28;20744;-90
2022/09/07 01:06:48;;;;;;;10.23;2.00;;;17.50;88.50;;;;;;2091643;28;20263;-89
2022/09/07 01:07:49;;;;;;;9.75;2.10;;;17.50;88.70;;;;;;2091666;28;20262;-87
2022/09/07 01:08:51;;;;;;;6.57;1.43;;;17.50;89.00;;;;;;2083350;28;20040;-91
2022/09/07 01:09:54;;;;;;;12.60;1.75;;;17.50;88.80;;;;;;2085958;28;20336;-90
2022/09/07 01:10:56;;;;;;;9.93;1.85;;;17.50;88.70;;;;;;2099725;28;20078;-91
2022/09/07 01:11:59;;;;;;;7.78;2.17;;;17.50;88.50;;;;;;2088500;28;20301;-91
2022/09/07 01:13:00;;;;;;;8.52;2.05;;;17.50;88.50;;;;;;2083754;28;20334;-88
2022/09/07 01:14:03;;;;;;;13.00;2.10;;;17.50;88.70;;;;;;2086495;28;20270;-91
2022/09/07 01:15:04;;;;;;;11.75;2.10;;;17.50;88.70;;;;;;2090989;28;20025;-89
2022/09/07 01:16:14;;;;;;;15.77;3.55;;;17.50;90.00;;;;;;2089200;28;20270;-90
2022/09/07 01:17:51;;;;;;;12.93;1.92;;;17.60;88.60;;;;;;2079369;28;20044;-90
2022/09/07 01:19:22;;;;;;;7.85;1.73;;;17.60;89.30;;;;;;2104745;28;20336;-90
2022/09/07 01:20:38;;;;;;;9.18;1.83;;;17.50;88.90;;;;;;2092611;28;20265;-91
2022/09/07 01:21:48;;;;;;;7.85;1.95;;;17.50;89.00;;;;;;2079267;28;20278;-89
2022/09/07 01:23:07;;;;;;;10.00;2.13;;;17.50;89.10;;;;;;2092034;28;20270;-92
2022/09/07 01:24:32;;;;;;;11.65;2.05;;;17.50;88.90;;;;;;2093825;28;20250;-90
2022/09/07 01:26:05;;;;;;;8.13;1.73;;;17.50;89.10;;;;;;2094712;28;20270;-90
2022/09/07 01:27:38;;;;;;;7.15;1.70;;;17.50;88.70;;;;;;2098493;28;20323;-89
2022/09/07 01:28:41;;;;;;;11.00;1.90;;;17.50;89.00;;;;;;2087571;28;20783;-91
2022/09/07 01:30:00;;;;;;;8.32;1.92;;;17.50;88.70;;;;;;2084570;28;20380;-91
2022/09/07 01:31:11;;;;;;;14.68;2.00;;;17.50;88.90;;;;;;2083420;28;20346;-88
2022/09/07 01:32:27;;;;;;;8.98;1.75;;;17.50;89.00;;;;;;2091326;28;20270;-91
2022/09/07 01:34:09;;;;;;;6.20;1.70;;;17.50;88.70;;;;;;2085254;28;20270;-92
2022/09/07 01:35:40;;;;;;;11.52;1.90;;;17.50;88.90;;;;;;2087863;28;20266;-92
2022/09/07 01:37:18;;;;;;;9.10;1.58;;;17.50;89.40;;;;;;2090025;28;20739;-90
2022/09/07 01:38:42;;;;;;;8.88;1.75;;;17.50;88.90;;;;;;2092873;28;20323;-90
2022/09/07 01:39:57;;;;;;;7.15;1.73;;;17.50;88.80;;;;;;2097238;28;20276;-90
2022/09/07 01:41:13;;;;;;;8.00;1.38;;;17.50;89.00;;;;;;2092380;28;20323;-91
2022/09/07 01:42:16;;;;;;;10.85;2.00;;;17.50;89.00;;;;;;2092690;28;20258;-90
2022/09/07 01:43:36;;;;;;;7.80;1.60;;;17.50;88.70;;;;;;2083922;28;20250;-88
2022/09/07 01:44:50;;;;;;;11.45;1.45;;;17.50;88.80;;;;;;2093661;28;20254;-92
2022/09/07 01:45:54;;;;;;;7.45;2.08;;;17.50;89.00;;;;;;2086707;28;20263;-91
2022/09/07 01:47:03;;;;;;;10.10;1.90;;;17.50;88.80;;;;;;2075672;28;20334;-90
2022/09/07 01:48:08;;;;;;;6.60;1.33;;;17.50;88.50;;;;;;2078052;28;20626;-88
2022/09/07 01:49:25;;;;;;;8.05;1.45;;;17.50;89.00;;;;;;2096637;28;20268;-89
2022/09/07 01:50:41;;;;;;;9.40;1.75;;;17.50;89.40;;;;;;2105703;28;20325;-90
2022/09/07 01:51:45;;;;;;;9.15;1.95;;;17.40;88.80;;;;;;2102321;28;20773;-91
2022/09/07 01:53:09;;;;;;;11.27;1.70;;;17.50;89.10;;;;;;2088397;28;20285;-90
2022/09/07 01:54:30;;;;;;;12.07;2.03;;;17.50;89.00;;;;;;2088971;28;20777;-90
2022/09/07 01:55:37;;;;;;;11.57;1.67;;;17.50;89.00;;;;;;2099387;28;20619;-91
2022/09/07 01:56:42;;;;;;;13.35;1.63;;;17.50;89.20;;;;;;2096530;28;20254;-90
2022/09/07 01:57:50;;;;;;;6.78;1.90;;;17.50;89.10;;;;;;2099906;28;20747;-93
2022/09/07 01:58:55;;;;;;;8.75;1.58;;;17.40;89.70;;;;;;2083824;28;20262;-86
2022/09/07 02:00:10;;;;;;;11.25;2.20;;;17.50;90.00;;;;;;2086997;28;20313;-94
2022/09/07 02:01:36;;;;;;;10.88;1.80;;;17.40;90.00;;;;;;2091395;28;20258;-88
2022/09/07 02:03:00;;;;;;;5.65;1.30;;;17.40;89.20;;;;;;2085824;28;20274;-93
2022/09/07 02:04:09;;;;;;;11.18;2.17;;;17.40;89.10;;;;;;2094237;28;20273;-91
2022/09/07 02:05:16;;;;;;;7.85;1.50;;;17.40;89.20;;;;;;2084353;28;20756;-91
2022/09/07 02:06:24;;;;;;;10.77;1.58;;;17.40;89.60;;;;;;2076501;28;20263;-89
2022/09/07 02:07:39;;;;;;;8.68;1.65;;;17.40;89.10;;;;;;2082087;28;20727;-88
2022/09/07 02:09:07;;;;;;;8.50;1.92;;;17.50;89.20;;;;;;2085820;28;20277;-91
2022/09/07 02:10:39;;;;;;;7.45;1.55;;;17.50;90.00;;;;;;2102734;28;20272;-91
2022/09/07 02:11:44;;;;;;;12.90;1.98;;;17.50;89.20;;;;;;2086865;28;20262;-94
2022/09/07 02:12:53;;;;;;;12.75;2.15;;;17.50;89.30;;;;;;2081733;28;20657;-88
2022/09/07 02:13:59;;;;;;;6.88;1.48;;;17.50;89.40;;;;;;2095121;28;20269;-90
2022/09/07 02:15:06;;;;;;;9.43;1.98;;;17.50;89.60;;;;;;2097893;28;20270;-90
2022/09/07 02:16:13;;;;;;;8.68;1.52;;;17.50;89.50;;;;;;2083054;28;20313;-89
2022/09/07 02:17:27;;;;;;;7.85;1.45;;;17.50;89.20;;;;;;2093969;28;20297;-89
2022/09/07 02:18:35;;;;;;;8.55;1.45;;;17.50;89.40;;;;;;2092841;28;20269;-90
2022/09/07 02:19:42;;;;;;;12.38;1.52;;;17.50;89.30;;;;;;2082219;28;20279;-91
2022/09/07 02:20:47;;;;;;;10.65;2.15;;;17.50;89.70;;;;;;2079167;28;20282;-89
2022/09/07 02:21:55;;;;;;;10.55;2.22;;;17.50;89.40;;;;;;2083522;28;20687;-89
2022/09/07 02:23:03;;;;;;;16.80;2.20;;;17.40;89.20;;;;;;2083627;28;20345;-89
2022/09/07 02:24:10;;;;;;;10.52;1.40;;;17.50;89.50;;;;;;2083162;28;20266;-89
2022/09/07 02:25:20;;;;;;;7.43;1.63;;;17.50;89.10;;;;;;2084499;28;20679;-93
2022/09/07 02:26:24;;;;;;;8.88;1.58;;;17.50;89.10;;;;;;2098257;28;20323;-91
2022/09/07 02:27:38;;;;;;;9.20;1.95;;;17.40;89.70;;;;;;2088300;28;20617;-92
2022/09/07 02:28:39;;;;;;;6.60;1.67;;;17.40;88.90;;;;;;2084593;28;20266;-91
2022/09/07 02:29:42;;;;;;;13.30;1.98;;;17.40;90.00;;;;;;2086432;28;20348;-92
2022/09/07 02:30:43;;;;;;;5.70;1.40;;;17.40;89.90;;;;;;2085058;28;20080;-92
2022/09/07 02:31:44;;;;;;;8.85;1.80;;;17.40;90.00;;;;;;2086778;28;20330;-92
2022/09/07 02:32:44;;;;;;;12.75;1.52;;;17.40;89.80;;;;;;2080048;28;20275;-89
2022/09/07 02:33:46;;;;;;;9.03;1.83;;;17.40;89.50;;;;;;2085204;28;20056;-92
2022/09/07 02:34:47;;;;;;;12.65;2.17;;;17.40;89.70;;;;;;2089676;28;20120;-90
2022/09/07 02:35:48;;;;;;;8.75;1.50;;;17.40;89.80;;;;;;2090436;28;20366;-89
2022/09/07 02:36:51;;;;;;;6.90;1.50;;;17.40;89.80;;;;;;2074566;28;20353;-92
2022/09/07 02:37:52;;;;;;;9.15;1.58;;;17.40;89.90;;;;;;2085979;28;20107;-90
2022/09/07 02:38:53;;;;;;;7.13;1.50;;;17.40;89.80;;;;;;2082143;28;20756;-90
2022/09/07 02:39:53;;;;;;;8.02;1.70;;;17.40;90.00;;;;;;2084114;28;20467;-89
2022/09/07 02:40:57;;;;;;;8.47;1.80;;;17.40;89.90;;;;;;2082518;28;20022;-91
2022/09/07 02:41:57;;;;;;;7.28;1.80;;;17.40;90.10;;;;;;2086436;28;20098;-91
2022/09/07 02:43:01;;;;;;;8.57;2.00;;;17.40;89.70;;;;;;2105420;28;20260;-88
2022/09/07 02:44:06;;;;;;;6.80;1.60;;;17.40;90.00;;;;;;2086538;28;20024;-89
2022/09/07 02:45:09;;;;;;;8.77;1.60;;;17.40;90.00;;;;;;2099580;28;20262;-93
2022/09/07 02:46:25;;;;;;;7.18;1.58;;;17.40;89.50;;;;;;2097540;28;20445;-92
2022/09/07 02:47:44;;;;;;;12.10;1.80;;;17.40;89.90;;;;;;2090496;28;20311;-91
2022/09/07 02:49:11;;;;;;;4.22;1.00;;;17.40;89.70;;;;;;2085131;28;20267;-91
2022/09/07 02:50:36;;;;;;;16.15;2.42;;;17.40;89.40;;;;;;2077994;28;20265;-88
2022/09/07 02:51:52;;;;;;;12.18;1.85;;;17.40;90.00;;;;;;2085483;28;20292;-89
2022/09/07 02:52:58;;;;;;;11.57;1.80;;;17.40;89.50;;;;;;2083211;28;20274;-92
2022/09/07 02:54:17;;;;;;;12.20;1.70;;;17.30;90.00;;;;;;2090447;28;20337;-88
2022/09/07 02:55:58;;;;;;;7.47;1.45;;;17.40;90.00;;;;;;2092233;28;20277;-91
2022/09/07 02:57:16;;;;;;;14.57;1.58;;;17.40;90.00;;;;;;2089952;28;20277;-90
2022/09/07 02:59:02;;;;;;;5.95;1.75;;;17.30;89.80;;;;;;2087758;28;20267;-92
2022/09/07 03:00:16;;;;;;;10.75;1.60;;;17.30;89.90;;;;;;2071662;28;20259;-89
2022/09/07 03:01:39;;;;;;;14.48;1.98;;;17.30;89.90;;;;;;2075873;28;20321;-91
2022/09/07 03:02:51;;;;;;;8.98;1.48;;;17.30;90.00;;;;;;2072104;28;20664;-92
2022/09/07 03:03:57;;;;;;;8.48;1.90;;;17.30;90.00;;;;;;2074945;28;20129;-93
2022/09/07 03:05:42;;;;;;;11.48;2.00;;;17.30;90.10;;;;;;2059892;28;20045;-91
2022/09/07 03:06:58;;;;;;;7.57;1.85;;;17.30;89.80;;;;;;2083254;28;20258;-92
2022/09/07 03:08:19;;;;;;;8.20;1.55;;;17.30;89.90;;;;;;2096652;28;20650;-92
2022/09/07 03:09:25;;;;;;;10.13;1.67;;;17.30;89.70;;;;;;2086722;28;20258;-91
2022/09/07 03:10:26;;;;;;;9.20;1.88;;;17.30;90.00;;;;;;2085567;28;20338;-87
2022/09/07 03:11:28;;;;;;;10.20;1.55;;;17.30;89.80;;;;;;2092270;28;20258;-89
2022/09/07 03:12:44;;;;;;;6.50;2.28;;;17.30;89.80;;;;;;2100247;28;20028;-89
2022/09/07 03:13:44;;;;;;;9.30;1.60;;;17.30;90.10;;;;;;2094790;28;21169;-93
2022/09/07 03:14:45;;;;;;;10.82;1.55;;;17.30;90.10;;;;;;2087014;28;20352;-89
2022/09/07 03:15:46;;;;;;;11.20;1.87;;;17.30;90.00;;;;;;2075602;28;20101;-92
2022/09/07 03:16:49;;;;;;;9.73;2.00;;;17.30;89.90;;;;;;2088588;28;20290;-89
2022/09/07 03:17:51;;;;;;;11.23;1.80;;;17.30;90.20;;;;;;2084710;28;20395;-89
2022/09/07 03:18:51;;;;;;;9.98;1.48;;;17.30;89.80;;;;;;2083784;28;20309;-92
2022/09/07 03:19:52;;;;;;;7.03;1.60;;;17.30;90.00;;;;;;2083057;28;20041;-89
2022/09/07 03:20:54;;;;;;;8.73;1.60;;;17.30;89.80;;;;;;2076159;28;20067;-90
2022/09/07 03:21:54;;;;;;;12.65;2.03;;;17.30;90.00;;;;;;2084301;28;20125;-92
2022/09/07 03:22:55;;;;;;;10.32;1.77;;;17.30;90.10;;;;;;2097133;28;20478;-88
2022/09/07 03:23:56;;;;;;;6.90;1.70;;;17.30;89.80;;;;;;2092261;28;20074;-91
2022/09/07 03:24:57;;;;;;;11.02;2.03;;;17.30;90.00;;;;;;2077599;28;20128;-93
2022/09/07 03:25:57;;;;;;;8.25;1.98;;;17.20;90.00;;;;;;2088833;28;20025;-87
2022/09/07 03:26:59;;;;;;;9.13;1.70;;;17.30;89.70;;;;;;2089435;28;20523;-88
2022/09/07 03:28:00;;;;;;;9.18;1.85;;;17.30;90.00;;;;;;2089575;28;20022;-91
2022/09/07 03:29:00;;;;;;;6.43;1.50;;;17.20;89.60;;;;;;2090667;28;20025;-90
2022/09/07 03:30:03;;;;;;;7.67;1.83;;;17.30;89.70;;;;;;2085919;28;20021;-91
2022/09/07 03:31:04;;;;;;;13.43;2.13;;;17.20;90.00;;;;;;2092146;28;20036;-86
2022/09/07 03:32:05;;;;;;;6.50;1.30;;;17.30;90.00;;;;;;2089524;28;20344;-92
2022/09/07 03:33:06;;;;;;;14.73;2.10;;;17.30;89.30;;;;;;2090623;28;20079;-92
2022/09/07 03:34:07;;;;;;;12.33;1.60;;;17.20;89.40;;;;;;2091586;28;20029;-90
2022/09/07 03:35:08;;;;;;;10.47;1.80;;;17.20;89.90;;;;;;2083890;28;20035;-90
2022/09/07 03:36:08;;;;;;;9.70;1.73;;;17.20;90.00;;;;;;2083642;28;20486;-89
2022/09/07 03:37:09;;;;;;;7.53;1.50;;;17.20;90.10;;;;;;2091989;28;20139;-87
2022/09/07 03:38:10;;;;;;;12.18;1.90;;;17.20;89.20;;;;;;2099332;28;20020;-91
2022/09/07 03:39:12;;;;;;;9.57;1.40;;;17.20;89.60;;;;;;2091156;28;20043;-92
2022/09/07 03:40:14;;;;;;;9.45;1.83;;;17.20;89.70;;;;;;2092355;28;20025;-91
2022/09/07 03:41:15;;;;;;;6.93;1.52;;;17.20;90.00;;;;;;2084191;28;20259;-88
2022/09/07 03:42:16;;;;;;;6.43;1.30;;;17.20;89.70;;;;;;2083081;28;20021;-89
2022/09/07 03:43:16;;;;;;;11.07;1.77;;;17.20;89.70;;;;;;2091495;28;20447;-90
2022/09/07 03:44:17;;;;;;;11.23;1.50;;;17.20;89.40;;;;;;2093134;28;20032;-91
2022/09/07 03:45:18;;;;;;;11.20;1.67;;;17.20;89.80;;;;;;2085601;28;20450;-91
2022/09/07 03:46:19;;;;;;;10.35;2.50;;;17.20;89.40;;;;;;2100510;28;20493;-92
2022/09/07 03:47:20;;;;;;;10.43;2.20;;;17.20;89.50;;;;;;2086282;28;20108;-93
2022/09/07 03:48:20;;;;;;;10.23;1.77;;;17.20;89.40;;;;;;2092279;28;20033;-89
2022/09/07 03:49:21;;;;;;;13.60;2.13;;;17.20;89.80;;;;;;2089969;28;20029;-88
2022/09/07 03:50:22;;;;;;;7.50;1.57;;;17.20;89.80;;;;;;2082541;28;20120;-90
2022/09/07 03:51:23;;;;;;;9.40;1.60;;;17.20;89.70;;;;;;2092195;28;20048;-91
2022/09/07 03:52:23;;;;;;;10.67;1.77;;;17.10;89.60;;;;;;2087302;28;20094;-90
2022/09/07 03:53:24;;;;;;;7.43;1.43;;;17.10;90.00;;;;;;2099463;28;20036;-89
2022/09/07 03:54:25;;;;;;;9.43;1.77;;;17.10;89.90;;;;;;2089982;28;20071;-90
2022/09/07 03:55:26;;;;;;;4.43;1.60;;;17.10;89.90;;;;;;2092129;28;20037;-91
2022/09/07 03:56:27;;;;;;;13.37;2.17;;;17.10;89.90;;;;;;2091590;28;20413;-88
2022/09/07 03:57:27;;;;;;;9.52;1.60;;;17.10;89.80;;;;;;2083836;28;20052;-93
2022/09/07 03:58:29;;;;;;;9.27;1.47;;;17.10;89.90;;;;;;2083883;28;20033;-91
2022/09/07 03:59:30;;;;;;;8.63;1.60;;;17.10;89.60;;;;;;2098821;28;20380;-92
2022/09/07 04:00:31;;;;;;;9.00;1.95;;;17.10;90.00;;;;;;2099729;28;20319;-91
2022/09/07 04:01:32;;;;;;;10.67;1.63;;;17.10;89.70;;;;;;2083929;28;20036;-91
2022/09/07 04:02:32;;;;;;;6.03;1.50;;;17.10;89.40;;;;;;2085604;28;20036;-92
2022/09/07 04:03:33;;;;;;;14.53;1.90;;;17.20;89.70;;;;;;2075851;28;20058;-90
2022/09/07 04:04:34;;;;;;;12.13;1.85;;;17.10;89.30;;;;;;2080317;28;20089;-88
2022/09/07 04:05:35;;;;;;;8.48;1.45;;;17.10;89.60;;;;;;2083874;28;20044;-93
2022/09/07 04:06:35;;;;;;;9.65;1.80;;;17.10;89.80;;;;;;2086041;28;20380;-90
2022/09/07 04:07:36;;;;;;;11.73;1.77;;;17.20;89.50;;;;;;2092191;28;20025;-92
2022/09/07 04:08:39;;;;;;;12.97;1.63;;;17.20;89.50;;;;;;2085653;28;20021;-91
2022/09/07 04:09:39;;;;;;;6.97;1.58;;;17.20;90.30;;;;;;2091638;28;20486;-91
2022/09/07 04:10:40;;;;;;;10.23;1.80;;;17.20;90.10;;;;;;2092024;28;20274;-89
2022/09/07 04:11:41;;;;;;;6.43;1.30;;;17.20;89.50;;;;;;2091714;28;20041;-90
2022/09/07 04:12:42;;;;;;;5.07;1.50;;;17.20;88.80;;;;;;2092083;28;20033;-89
2022/09/07 04:13:44;;;;;;;16.15;1.67;;;17.20;89.20;;;;;;2091970;28;20065;-89
2022/09/07 04:14:45;;;;;;;8.57;1.65;;;17.20;89.60;;;;;;2083755;28;20475;-91
2022/09/07 04:15:45;;;;;;;14.93;1.80;;;17.10;89.30;;;;;;2079083;28;20456;-88
2022/09/07 04:16:46;;;;;;;14.30;1.85;;;17.10;89.00;;;;;;2083239;28;20274;-89
2022/09/07 04:17:47;;;;;;;9.40;1.60;;;17.10;88.50;;;;;;2091611;28;20044;-87
2022/09/07 04:18:49;;;;;;;11.13;1.57;;;17.10;89.00;;;;;;2091866;28;20061;-92
2022/09/07 04:19:49;;;;;;;11.20;1.98;;;17.10;89.30;;;;;;2099603;28;20048;-92
2022/09/07 04:20:50;;;;;;;12.07;1.90;;;17.10;89.20;;;;;;2091976;28;20029;-90
2022/09/07 04:21:51;;;;;;;10.05;1.77;;;17.10;89.50;;;;;;2088191;28;20048;-91
2022/09/07 04:22:52;;;;;;;16.60;2.53;;;17.10;89.60;;;;;;2091557;28;20024;-89
2022/09/07 04:23:53;;;;;;;10.43;2.08;;;17.10;89.40;;;;;;2090731;28;20021;-92
2022/09/07 04:24:53;;;;;;;13.38;1.75;;;17.10;89.40;;;;;;2087314;28;20033;-93
2022/09/07 04:25:54;;;;;;;16.92;1.90;;;17.10;89.60;;;;;;2090576;28;20123;-93
2022/09/07 04:26:55;;;;;;;12.13;1.63;;;17.10;89.20;;;;;;2099395;28;20039;-89
2022/09/07 04:27:56;;;;;;;15.35;2.97;;;17.10;89.20;;;;;;2091994;28;20029;-93
2022/09/07 04:28:59;;;;;;;11.57;1.70;;;17.10;89.00;;;;;;2082320;28;20096;-92
2022/09/07 04:30:00;;;;;;;12.85;1.90;;;17.10;89.10;;;;;;2088477;28;20137;-92
2022/09/07 04:31:01;;;;;;;14.10;1.80;;;17.10;89.10;;;;;;2090695;28;20282;-93
2022/09/07 04:32:02;;;;;;;9.82;1.88;;;17.10;89.20;;;;;;2090908;28;20116;-87
2022/09/07 04:33:03;;;;;;;12.97;1.90;;;17.10;89.80;;;;;;2081888;28;20021;-92
2022/09/07 04:34:05;;;;;;;8.77;1.63;;;17.10;89.30;;;;;;2075593;28;20030;-91
2022/09/07 04:35:06;;;;;;;;;;;17.10;89.70;;;;;;2087231;28;20460;-90
2022/09/07 04:36:07;;;;;;;10.60;1.50;;;17.10;89.80;;;;;;2081363;28;19909;-90
2022/09/07 04:37:07;;;;;;;10.35;1.90;;;17.10;89.60;;;;;;2091908;28;20025;-91
2022/09/07 04:38:13;;;;;;;12.45;1.90;;;17.10;90.00;;;;;;2088401;28;20104;-88
2022/09/07 04:39:14;;;;;;;14.13;2.30;;;17.10;89.60;;;;;;2083538;28;20091;-90
2022/09/07 04:40:14;;;;;;;9.45;1.48;;;17.10;89.00;;;;;;2083474;28;20737;-93
2022/09/07 04:41:17;;;;;;;12.75;1.63;;;17.10;88.80;;;;;;2090539;28;20443;-90
2022/09/07 04:42:18;;;;;;;13.43;1.73;;;17.10;89.30;;;;;;2099827;28;20098;-89
2022/09/07 04:43:18;;;;;;;9.40;1.92;;;17.10;89.90;;;;;;2091254;28;20341;-89
2022/09/07 04:44:19;;;;;;;10.60;2.00;;;17.10;89.70;;;;;;2083447;28;20022;-90
2022/09/07 04:45:20;;;;;;;9.85;1.75;;;17.10;89.50;;;;;;2078510;28;20045;-93
2022/09/07 04:46:29;;;;;;;9.83;2.07;;;17.10;89.30;;;;;;2075224;28;20061;-91
2022/09/07 04:47:30;;;;;;;9.00;1.90;;;17.10;89.20;;;;;;2085132;28;20026;-91
2022/09/07 04:48:31;;;;;;;11.38;2.30;;;17.10;89.20;;;;;;2094793;28;20731;-90
2022/09/07 04:49:31;;;;;;;9.53;1.73;;;17.10;89.10;;;;;;2090989;28;20036;-91
2022/09/07 04:50:32;;;;;;;11.90;1.73;;;17.10;89.50;;;;;;2086019;28;20029;-89
2022/09/07 04:51:34;;;;;;;8.90;1.75;;;17.10;89.20;;;;;;2091298;28;20125;-90
2022/09/07 04:52:34;;;;;;;15.05;2.08;;;17.10;89.70;;;;;;2083616;28;20112;-91
2022/09/07 04:53:36;;;;;;;10.97;2.30;;;17.10;89.50;;;;;;2090915;28;20470;-90
2022/09/07 04:54:37;;;;;;;;;;;17.10;89.30;;;;;;2100336;28;20032;-90
2022/09/07 04:55:38;;;;;;;12.25;2.17;;;17.10;89.20;;;;;;2091021;28;20047;-89
2022/09/07 04:56:38;;;;;;;7.80;1.53;;;17.10;89.60;;;;;;2083214;28;20073;-90
2022/09/07 04:57:39;;;;;;;11.27;1.97;;;17.10;89.30;;;;;;2083463;28;20039;-92
2022/09/07 04:58:40;;;;;;;11.95;2.08;;;17.10;89.50;;;;;;2088955;28;20143;-91
2022/09/07 04:59:40;;;;;;;9.40;1.57;;;17.10;89.40;;;;;;2083308;28;20037;-89
2022/09/07 05:00:41;;;;;;;16.70;2.47;;;17.10;89.30;;;;;;2087665;28;20029;-89
2022/09/07 05:01:42;;;;;;;12.93;2.23;;;17.10;89.20;;;;;;2083460;28;20061;-92
2022/09/07 05:02:42;;;;;;;15.97;2.13;;;17.10;89.90;;;;;;2091330;28;20036;-92
2022/09/07 05:03:43;;;;;;;14.40;2.30;;;17.10;89.40;;;;;;2100108;28;20025;-90
2022/09/07 05:04:44;;;;;;;12.83;2.00;;;17.10;89.40;;;;;;2086359;28;20028;-91
2022/09/07 05:05:45;;;;;;;20.33;3.20;;;17.10;89.70;;;;;;2076125;28;20040;-93
2022/09/07 05:06:45;;;;;;;13.13;2.45;;;17.10;90.00;;;;;;2083007;28;20468;-90
2022/09/07 05:07:46;;;;;;;14.03;2.47;;;17.10;89.80;;;;;;2078812;28;20033;-88
2022/09/07 05:08:49;;;;;;;9.63;2.23;;;17.10;89.40;;;;;;2082913;28;20033;-87
2022/09/07 05:09:50;;;;;;;15.43;2.40;;;17.10;89.70;;;;;;2090880;28;20033;-90
2022/09/07 05:10:52;;;;;;;12.93;1.73;;;17.10;89.70;;;;;;2084589;28;20358;-92
2022/09/07 05:11:53;;;;;;;16.45;3.05;;;17.10;89.50;;;;;;2083495;28;20029;-88
2022/09/07 05:12:54;;;;;;;10.13;1.58;;;17.10;89.40;;;;;;2084939;28;20475;-89
2022/09/07 05:13:56;;;;;;;9.18;2.35;;;17.10;89.70;;;;;;2083413;28;20112;-89
2022/09/07 05:14:57;;;;;;;14.10;2.00;;;17.10;89.40;;;;;;2082395;28;20091;-90
2022/09/07 05:15:59;;;;;;;16.20;1.98;;;17.10;89.60;;;;;;2090066;28;20359;-89
2022/09/07 05:16:59;;;;;;;11.88;2.40;;;17.10;89.50;;;;;;2091487;28;20411;-89
2022/09/07 05:18:00;;;;;;;14.37;2.47;;;17.10;89.70;;;;;;2090843;28;20025;-90
2022/09/07 05:19:03;;;;;;;6.97;1.97;;;17.10;89.70;;;;;;2090949;28;20077;-90
2022/09/07 05:20:05;;;;;;;10.60;2.47;;;17.10;89.40;;;;;;2091980;28;20075;-88
2022/09/07 05:21:14;;;;;;;11.20;2.10;;;17.10;89.70;;;;;;2090616;28;20266;-90
2022/09/07 05:22:15;;;;;;;17.52;2.63;;;17.10;89.70;;;;;;2076785;28;20355;-89
2022/09/07 05:23:16;;;;;;;10.18;2.30;;;17.10;89.80;;;;;;2079535;28;20381;-91
2022/09/07 05:24:17;;;;;;;11.07;1.97;;;17.10;89.50;;;;;;2082629;28;20021;-93
2022/09/07 05:25:17;;;;;;;9.57;2.50;;;17.10;89.90;;;;;;2091505;28;20021;-91
2022/09/07 05:26:20;;;;;;;12.60;2.80;;;17.10;90.00;;;;;;2095025;28;20017;-90
2022/09/07 05:27:21;;;;;;;13.10;2.03;;;17.10;90.00;;;;;;2083890;28;20621;-92
2022/09/07 05:28:22;;;;;;;14.13;2.55;;;17.10;90.00;;;;;;2091353;28;20276;-89
2022/09/07 05:29:23;;;;;;;11.07;1.67;;;17.10;89.70;;;;;;2074580;28;20101;-90
2022/09/07 05:30:24;;;;;;;14.73;2.13;;;17.10;89.80;;;;;;2092224;28;20218;-93
2022/09/07 05:31:25;;;;;;;10.30;2.22;;;17.10;89.70;;;;;;2091828;28;20033;-91
2022/09/07 05:32:25;;;;;;;15.95;2.40;;;17.00;89.50;;;;;;2090318;28;20037;-91
2022/09/07 05:33:26;;;;;;;8.95;1.95;;;17.00;89.70;;;;;;2087591;28;20033;-92
2022/09/07 05:34:27;;;;;;;16.53;2.50;;;17.00;89.70;;;;;;2091346;28;20036;-91
2022/09/07 05:35:28;;;;;;;11.90;1.83;;;17.00;89.50;;;;;;2098548;28;20075;-90
2022/09/07 05:36:29;;;;;;;17.93;2.30;;;17.00;89.50;;;;;;2088909;28;20098;-89
2022/09/07 05:37:29;;;;;;;18.77;2.50;;;17.00;90.00;;;;;;2091610;28;20029;-90
2022/09/07 05:38:30;;;;;;;10.00;1.90;;;17.00;89.70;;;;;;2091233;28;20025;-90